Laurelville, Pennsylvania
Current Conditions -  °F | °C
As of 5:53 AM on Sunday 26 Oct 2014 (Local Time) from KLNS Reporting Station
Clear Clear  
Wind Chill: 53°   Ceiling: Unl
Heat Index: 53°   Visibility: 10mi
Dew Point: 34°   Wind: 13mph
Humidity: 48%   Direction: 290°WNW
Pressure: 29.69"   Gusts: NA
Location:  40.1038°N, 76.0725°W
Report Text: KLNS 260953Z AUTO 29011KT 10SM CLR 12/01 A2969 RMK AO2 SLP051 T01170011
Loading
Personal Weather Stations






























Interactive Weather Map
Tropical Storm Tracking
New forecast layout! Learn more

10-Day Weather Forecast

Advertisements
Track Severe Weather on mobile